Time;durP1;ratioP1;P1;durP2;ratioP2;P2;SDS_P1;SDS_P2;PMS_P1;PMS_P2;Temp;Humidity;BMP_temperature;BMP_pressure;BME280_temperature;BME280_humidity;BME280_pressure;Samples;Min_cycle;Max_cycle;Signal;HPM_P1;HPM_P2
2021/07/05 00:01:39;;;;;;;2.83;1.87;;;15.80;99.90;;;;;;5095202;28;20643;-76
2021/07/05 00:04:05;;;;;;;9.70;2.13;;;15.80;99.90;;;;;;5094156;28;20299;-77
2021/07/05 00:06:30;;;;;;;2.47;2.10;;;15.80;99.90;;;;;;5093993;28;20206;-77
2021/07/05 00:08:56;;;;;;;3.30;2.10;;;15.70;99.90;;;;;;5094032;28;20173;-76
2021/07/05 00:11:22;;;;;;;3.27;1.90;;;15.70;99.90;;;;;;5095089;28;20275;-76
2021/07/05 00:13:47;;;;;;;2.93;1.60;;;15.70;99.90;;;;;;5095217;28;20257;-77
2021/07/05 00:16:13;;;;;;;2.30;2.07;;;15.70;99.90;;;;;;5094192;28;20204;-76
2021/07/05 00:18:38;;;;;;;3.83;1.93;;;15.70;99.90;;;;;;5095101;28;20173;-77
2021/07/05 00:21:04;;;;;;;3.83;2.40;;;15.70;99.90;;;;;;5094979;28;20184;-76
2021/07/05 00:23:30;;;;;;;4.20;2.50;;;15.70;99.90;;;;;;5092028;28;20575;-77
2021/07/05 00:25:55;;;;;;;5.30;2.57;;;15.80;99.90;;;;;;5073486;28;20207;-76
2021/07/05 00:28:21;;;;;;;2.07;1.87;;;15.80;99.90;;;;;;5073367;28;20641;-77
2021/07/05 00:30:47;;;;;;;2.40;2.20;;;15.90;99.90;;;;;;5074584;28;20195;-76
2021/07/05 00:33:13;;;;;;;2.20;2.00;;;15.90;99.90;;;;;;5074142;28;20662;-77
2021/07/05 00:35:39;;;;;;;2.27;2.07;;;15.90;99.90;;;;;;5073854;28;20283;-76
2021/07/05 00:38:05;;;;;;;3.20;2.53;;;15.90;99.90;;;;;;5073283;28;20198;-76
2021/07/05 00:40:31;;;;;;;3.70;2.20;;;15.80;99.90;;;;;;5074253;28;20192;-76
2021/07/05 00:42:57;;;;;;;2.47;1.93;;;15.80;99.90;;;;;;5115924;22;20223;-74
2021/07/05 00:45:25;;;;;;;5.50;2.10;;;15.80;99.90;;;;;;5094530;28;20638;-75
2021/07/05 00:47:50;;;;;;;5.60;2.67;;;15.80;99.90;;;;;;5094579;28;20178;-75
2021/07/05 00:50:19;;;;;;;3.93;2.30;;;15.80;99.90;;;;;;5075876;28;20233;-74
2021/07/05 00:52:46;;;;;;;2.10;1.90;;;15.80;99.90;;;;;;5079039;28;20191;-74
2021/07/05 00:55:13;;;;;;;2.27;2.07;;;15.90;99.90;;;;;;5073998;28;20329;-72
2021/07/05 00:57:39;;;;;;;2.30;2.07;;;15.90;99.90;;;;;;5073992;28;20181;-72
2021/07/05 01:00:09;;;;;;;2.20;2.00;;;16.00;99.90;;;;;;5074003;28;20170;-71
2021/07/05 01:02:35;;;;;;;3.67;2.30;;;16.00;99.90;;;;;;5073830;28;20262;-71
2021/07/05 01:05:00;;;;;;;2.63;2.20;;;16.00;99.90;;;;;;5055961;28;20223;-72
2021/07/05 01:07:26;;;;;;;2.20;2.00;;;16.10;99.90;;;;;;5055922;28;20181;-72
2021/07/05 01:09:52;;;;;;;2.67;2.30;;;16.10;99.90;;;;;;5073764;28;20174;-70
2021/07/05 01:12:18;;;;;;;5.10;2.30;;;16.00;99.90;;;;;;5073736;28;20200;-72
2021/07/05 01:14:44;;;;;;;3.87;2.40;;;16.10;99.90;;;;;;5073532;28;20189;-71
2021/07/05 01:17:13;;;;;;;5.37;2.70;;;16.00;99.90;;;;;;5073888;28;20231;-72
2021/07/05 01:19:41;;;;;;;3.20;2.70;;;16.00;99.90;;;;;;5073324;28;20222;-72
2021/07/05 01:22:07;;;;;;;3.00;2.33;;;15.90;99.90;;;;;;5072010;28;20197;-72
2021/07/05 01:24:33;;;;;;;4.67;2.60;;;15.90;99.90;;;;;;5068777;28;20180;-72
2021/07/05 01:26:58;;;;;;;5.20;2.90;;;16.00;99.90;;;;;;5057809;28;20226;-73
2021/07/05 01:29:24;;;;;;;6.00;3.00;;;15.90;99.90;;;;;;5055428;28;20174;-72
2021/07/05 01:31:50;;;;;;;5.10;2.87;;;15.90;99.90;;;;;;5054984;28;20281;-73
2021/07/05 01:34:15;;;;;;;6.03;3.00;;;15.90;99.90;;;;;;5055691;28;20166;-73
2021/07/05 01:36:43;;;;;;;3.50;2.70;;;15.90;99.90;;;;;;5056063;28;20192;-72
2021/07/05 01:39:09;;;;;;;5.40;3.03;;;15.90;99.90;;;;;;5060158;28;20262;-72
2021/07/05 01:41:35;;;;;;;5.40;2.77;;;16.00;99.90;;;;;;5054987;28;20665;-72
2021/07/05 01:44:01;;;;;;;3.67;2.97;;;15.90;99.90;;;;;;5049794;28;20184;-72
2021/07/05 01:46:26;;;;;;;5.80;3.20;;;15.90;99.90;;;;;;5054576;28;20272;-72
2021/07/05 01:48:52;;;;;;;3.00;2.60;;;15.90;99.90;;;;;;5047774;28;20173;-73
2021/07/05 01:51:17;;;;;;;6.57;2.80;;;15.90;99.90;;;;;;5055700;28;20251;-72
2021/07/05 01:53:43;;;;;;;5.47;2.90;;;16.00;99.90;;;;;;5057355;28;20204;-72
2021/07/05 01:56:10;;;;;;;4.40;2.90;;;15.90;99.90;;;;;;5061300;28;20193;-72
2021/07/05 01:58:35;;;;;;;4.57;2.70;;;15.90;99.90;;;;;;5054980;28;20167;-72
2021/07/05 02:01:02;;;;;;;3.50;2.90;;;16.00;99.90;;;;;;5057841;28;20249;-72
2021/07/05 02:03:27;;;;;;;3.23;2.93;;;15.90;99.90;;;;;;5061443;28;20174;-72
2021/07/05 02:05:53;;;;;;;6.23;2.57;;;15.90;99.90;;;;;;5055330;28;20177;-72
2021/07/05 02:08:19;;;;;;;6.33;2.33;;;15.90;99.90;;;;;;5049699;28;20208;-73
2021/07/05 02:10:45;;;;;;;3.83;3.00;;;15.90;99.90;;;;;;5071002;28;20173;-72
2021/07/05 02:13:16;;;;;;;5.80;2.90;;;15.80;99.90;;;;;;5052632;28;20198;-73
2021/07/05 02:15:42;;;;;;;8.30;3.57;;;15.80;99.90;;;;;;5070846;28;20200;-72
2021/07/05 02:18:08;;;;;;;3.60;2.97;;;15.70;99.90;;;;;;5070788;28;20205;-72
2021/07/05 02:20:37;;;;;;;5.07;2.80;;;15.80;99.90;;;;;;5070794;28;20220;-72
2021/07/05 02:23:05;;;;;;;3.77;3.03;;;15.70;99.90;;;;;;5070599;28;20274;-73
2021/07/05 02:25:32;;;;;;;5.90;2.87;;;15.70;99.90;;;;;;5070218;28;20189;-72
2021/07/05 02:28:02;;;;;;;5.23;2.87;;;15.70;99.90;;;;;;5070811;28;20184;-75
2021/07/05 02:30:30;;;;;;;5.40;2.73;;;15.70;99.90;;;;;;5070797;28;20528;-74
2021/07/05 02:32:56;;;;;;;14.27;3.47;;;15.70;99.90;;;;;;5072103;28;20613;-73
2021/07/05 02:35:23;;;;;;;3.23;2.93;;;15.50;99.90;;;;;;5071019;28;20189;-75
2021/07/05 02:37:50;;;;;;;4.10;3.50;;;15.50;99.90;;;;;;5052659;28;20349;-75
2021/07/05 02:40:20;;;;;;;3.90;3.30;;;15.50;99.90;;;;;;5070612;28;20180;-73
2021/07/05 02:42:46;;;;;;;4.87;3.20;;;15.50;99.90;;;;;;5052107;28;20292;-72
2021/07/05 02:45:16;;;;;;;4.70;3.47;;;15.60;99.90;;;;;;5070642;28;20172;-73
2021/07/05 02:47:42;;;;;;;5.53;3.33;;;15.70;99.90;;;;;;5070696;28;20165;-72
2021/07/05 02:50:09;;;;;;;4.73;3.20;;;15.70;99.90;;;;;;5052794;28;20541;-72
2021/07/05 02:52:35;;;;;;;4.70;2.73;;;15.70;99.90;;;;;;5070770;28;20365;-72
2021/07/05 02:55:01;;;;;;;2.93;2.63;;;15.70;99.90;;;;;;5070516;28;20193;-72
2021/07/05 02:57:29;;;;;;;3.13;2.83;;;15.80;99.90;;;;;;5071578;28;20520;-73
2021/07/05 03:00:10;;;;;;;5.80;2.83;;;15.80;99.90;;;;;;5074287;28;20199;-72
2021/07/05 03:02:36;;;;;;;5.77;2.77;;;15.80;99.90;;;;;;5056054;28;20185;-72
2021/07/05 03:05:04;;;;;;;3.77;2.60;;;15.70;99.90;;;;;;5074061;28;20177;-73
2021/07/05 03:07:30;;;;;;;3.93;2.90;;;15.70;99.90;;;;;;5074580;28;20179;-72
2021/07/05 03:09:55;;;;;;;7.10;3.20;;;15.70;99.90;;;;;;5056890;28;20177;-73
2021/07/05 03:12:22;;;;;;;5.00;3.00;;;15.70;99.90;;;;;;5074307;28;20687;-72
2021/07/05 03:14:47;;;;;;;2.93;2.53;;;15.70;99.90;;;;;;5075204;28;20664;-72
2021/07/05 03:17:14;;;;;;;3.27;2.87;;;15.70;99.90;;;;;;5074061;28;20188;-72
2021/07/05 03:19:40;;;;;;;3.70;2.60;;;15.60;99.90;;;;;;5055373;28;20256;-72
2021/07/05 03:22:07;;;;;;;4.03;3.03;;;15.60;99.90;;;;;;5074426;28;20190;-76
2021/07/05 03:24:32;;;;;;;3.20;2.90;;;15.60;99.90;;;;;;5074579;28;20222;-75
2021/07/05 03:26:58;;;;;;;2.77;2.57;;;15.60;99.90;;;;;;5074122;28;20264;-72
2021/07/05 03:29:24;;;;;;;4.33;3.17;;;15.50;99.90;;;;;;5056586;28;20169;-72
2021/07/05 03:31:49;;;;;;;4.67;3.90;;;15.50;99.90;;;;;;5074249;28;20181;-73
2021/07/05 03:34:15;;;;;;;4.50;3.40;;;15.50;99.90;;;;;;5056459;28;20277;-72
2021/07/05 03:36:41;;;;;;;4.67;3.37;;;15.50;99.90;;;;;;5074235;28;20622;-72
2021/07/05 03:39:07;;;;;;;7.33;3.80;;;15.50;99.90;;;;;;5072779;28;20529;-72
2021/07/05 03:41:32;;;;;;;3.60;3.30;;;15.40;99.90;;;;;;5054601;28;20213;-72
2021/07/05 03:43:58;;;;;;;4.33;3.53;;;15.40;99.90;;;;;;5072802;28;20452;-73
2021/07/05 03:46:23;;;;;;;3.60;3.30;;;15.40;99.90;;;;;;5072779;28;20165;-73
2021/07/05 03:48:50;;;;;;;5.30;2.90;;;15.40;99.90;;;;;;5072510;28;20205;-72
2021/07/05 03:51:16;;;;;;;6.10;3.10;;;15.40;99.90;;;;;;5072407;28;20177;-72
2021/07/05 03:53:41;;;;;;;3.10;2.80;;;15.40;99.90;;;;;;5072934;28;20231;-73
2021/07/05 03:56:07;;;;;;;3.83;2.60;;;15.40;99.90;;;;;;5073044;28;20279;-73
2021/07/05 03:58:33;;;;;;;4.20;2.67;;;15.30;99.90;;;;;;5073208;28;20173;-72
2021/07/05 04:01:00;;;;;;;2.90;2.60;;;15.20;99.90;;;;;;5073974;28;20275;-72
2021/07/05 04:03:26;;;;;;;3.63;3.33;;;15.20;99.90;;;;;;5053574;28;20169;-73
2021/07/05 04:05:52;;;;;;;4.00;3.40;;;15.20;99.90;;;;;;5071955;28;20536;-72
2021/07/05 04:08:20;;;;;;;5.23;3.30;;;15.20;99.90;;;;;;5070843;28;20173;-72
2021/07/05 04:10:46;;;;;;;3.80;3.33;;;15.30;99.90;;;;;;5072312;28;20177;-72
2021/07/05 04:13:11;;;;;;;7.43;3.90;;;15.20;99.90;;;;;;5055286;28;20295;-72
2021/07/05 04:15:37;;;;;;;4.37;3.37;;;15.30;99.90;;;;;;5072934;28;20195;-74
2021/07/05 04:18:05;;;;;;;4.97;3.10;;;15.30;99.90;;;;;;5072834;28;20169;-75
2021/07/05 04:20:31;;;;;;;3.67;3.37;;;15.30;99.90;;;;;;5055372;28;20177;-75
2021/07/05 04:22:57;;;;;;;5.30;3.67;;;15.40;99.90;;;;;;5064576;28;20200;-75
2021/07/05 04:25:24;;;;;;;3.13;2.83;;;15.40;99.90;;;;;;5054329;28;20204;-75
2021/07/05 04:27:51;;;;;;;4.30;3.40;;;15.40;99.90;;;;;;5054648;28;20233;-72
2021/07/05 04:30:17;;;;;;;5.13;3.80;;;15.40;99.90;;;;;;5066369;28;20198;-72
2021/07/05 04:32:45;;;;;;;4.73;3.40;;;15.40;99.90;;;;;;5067434;28;20322;-72
2021/07/05 04:35:17;;;;;;;5.03;4.47;;;15.40;99.90;;;;;;5073439;28;20189;-71
2021/07/05 04:37:43;;;;;;;4.33;3.83;;;15.40;99.90;;;;;;5069706;28;20614;-71
2021/07/05 04:40:11;;;;;;;7.33;4.40;;;15.50;99.90;;;;;;5047322;28;20177;-71
2021/07/05 04:42:38;;;;;;;5.90;5.30;;;15.50;99.90;;;;;;5074102;28;20212;-71
2021/07/05 04:45:05;;;;;;;6.60;5.00;;;15.40;99.90;;;;;;5073140;28;20188;-75
2021/07/05 04:47:31;;;;;;;5.87;5.30;;;15.50;99.90;;;;;;5070920;28;20181;-73
2021/07/05 04:49:57;;;;;;;6.37;5.07;;;15.50;99.90;;;;;;5049164;28;20184;-73
2021/07/05 04:52:22;;;;;;;9.07;5.63;;;15.60;99.90;;;;;;5052280;28;20663;-72
2021/07/05 04:54:48;;;;;;;6.33;5.60;;;15.60;99.90;;;;;;5070870;28;20518;-73
2021/07/05 04:57:14;;;;;;;7.13;6.10;;;15.60;99.90;;;;;;5071362;28;20204;-72
2021/07/05 04:59:39;;;;;;;7.57;6.13;;;15.70;99.90;;;;;;5072597;28;20208;-73
2021/07/05 05:02:05;;;;;;;6.87;6.17;;;15.60;99.90;;;;;;5062781;28;20201;-73
2021/07/05 05:04:31;;;;;;;7.33;5.73;;;15.70;99.90;;;;;;5052670;28;20293;-80
2021/07/05 05:06:56;;;;;;;6.63;6.10;;;15.80;99.90;;;;;;5077252;28;20181;-82
2021/07/05 05:09:24;;;;;;;8.03;6.27;;;15.80;99.90;;;;;;5058299;28;20209;-81
2021/07/05 05:11:53;;;;;;;6.27;5.77;;;15.80;99.90;;;;;;5060063;28;20280;-81
2021/07/05 05:14:19;;;;;;;6.80;6.10;;;15.80;99.90;;;;;;5058753;28;20181;-80
2021/07/05 05:16:46;;;;;;;6.57;5.97;;;15.80;99.90;;;;;;5059456;28;20204;-80
2021/07/05 05:19:11;;;;;;;8.13;6.30;;;15.90;99.90;;;;;;5059144;28;20269;-81
2021/07/05 05:21:37;;;;;;;7.10;6.47;;;15.90;99.90;;;;;;5059263;28;20299;-80
2021/07/05 05:24:03;;;;;;;8.50;6.77;;;15.90;99.90;;;;;;5059127;28;20180;-81
2021/07/05 05:26:30;;;;;;;11.43;7.00;;;15.90;99.90;;;;;;5059832;28;20254;-80
2021/07/05 05:28:56;;;;;;;8.50;6.50;;;16.00;99.90;;;;;;5059602;28;20177;-80
2021/07/05 05:31:22;;;;;;;9.77;6.57;;;16.10;99.90;;;;;;5059250;28;20192;-81
2021/07/05 05:33:48;;;;;;;7.37;6.43;;;16.10;99.90;;;;;;5059161;28;20181;-81
2021/07/05 05:36:14;;;;;;;7.77;5.97;;;16.10;99.90;;;;;;5059136;28;20702;-81
2021/07/05 05:38:45;;;;;;;8.13;6.73;;;16.00;99.90;;;;;;5059346;28;20256;-81
2021/07/05 05:41:11;;;;;;;7.23;6.57;;;16.00;99.90;;;;;;5059368;28;20261;-81
2021/07/05 05:43:36;;;;;;;6.87;6.27;;;16.00;99.90;;;;;;5059209;28;20203;-80
2021/07/05 05:46:02;;;;;;;6.87;6.03;;;16.00;99.90;;;;;;5059466;28;20183;-81
2021/07/05 05:48:29;;;;;;;6.83;6.17;;;16.00;99.90;;;;;;5059177;28;20231;-80
2021/07/05 05:50:56;;;;;;;6.93;6.33;;;16.00;99.90;;;;;;5059582;28;20181;-81
2021/07/05 05:53:21;;;;;;;16.60;5.77;;;16.00;99.90;;;;;;5058906;28;20284;-80
2021/07/05 05:55:47;;;;;;;6.60;6.00;;;16.00;99.90;;;;;;5058331;28;20277;-80
2021/07/05 05:58:16;;;;;;;9.17;7.00;;;16.00;99.90;;;;;;5057519;28;20222;-81
2021/07/05 06:00:43;;;;;;;7.40;6.70;;;16.10;99.90;;;;;;5057788;28;20173;-80
2021/07/05 06:03:09;;;;;;;6.87;6.00;;;16.10;99.90;;;;;;5058626;28;20685;-80
2021/07/05 06:05:35;;;;;;;6.97;6.00;;;16.10;99.90;;;;;;5058275;28;20184;-80
2021/07/05 06:08:00;;;;;;;6.60;5.80;;;16.10;99.90;;;;;;5057477;28;20183;-80
2021/07/05 06:10:26;;;;;;;5.93;5.43;;;16.20;99.90;;;;;;5056883;28;20206;-80
2021/07/05 06:12:53;;;;;;;6.00;5.43;;;16.10;99.90;;;;;;5057162;28;20199;-80
2021/07/05 06:15:20;;;;;;;7.40;5.70;;;16.10;99.90;;;;;;5057258;28;20224;-80
2021/07/05 06:17:47;;;;;;;6.20;5.70;;;16.10;99.90;;;;;;5057283;28;20658;-80
2021/07/05 06:20:14;;;;;;;6.47;5.87;;;16.20;99.90;;;;;;5043606;28;20178;-80
2021/07/05 06:22:47;;;;;;;8.27;5.80;;;16.20;99.90;;;;;;5044889;28;20215;-80
2021/07/05 06:25:12;;;;;;;7.07;6.37;;;16.20;99.90;;;;;;5058816;28;20268;-80
2021/07/05 06:27:39;;;;;;;6.90;6.30;;;16.30;99.90;;;;;;5058275;28;20263;-80
2021/07/05 06:30:06;;;;;;;7.87;6.40;;;16.30;99.90;;;;;;5058821;28;20225;-80
2021/07/05 06:32:32;;;;;;;7.83;6.40;;;16.30;99.90;;;;;;5060305;28;20204;-81
2021/07/05 06:34:58;;;;;;;6.87;6.27;;;16.30;99.90;;;;;;5062591;28;20593;-80
2021/07/05 06:37:23;;;;;;;7.13;6.43;;;16.30;99.90;;;;;;5062611;28;20173;-81
2021/07/05 06:39:49;;;;;;;7.20;6.50;;;16.30;99.90;;;;;;5058595;28;20632;-80
2021/07/05 06:42:15;;;;;;;7.53;6.93;;;16.20;99.90;;;;;;5104274;22;20230;-78
2021/07/05 06:44:41;;;;;;;6.90;6.30;;;16.20;99.90;;;;;;5101707;28;20168;-79
2021/07/05 06:47:07;;;;;;;7.83;7.13;;;16.20;99.90;;;;;;5103102;28;20640;-80
2021/07/05 06:49:32;;;;;;;7.23;6.53;;;16.20;99.90;;;;;;5104919;28;20169;-79
2021/07/05 06:51:58;;;;;;;7.57;6.40;;;16.20;99.90;;;;;;5104735;28;20551;-80
2021/07/05 06:54:24;;;;;;;7.37;6.77;;;16.20;99.90;;;;;;5104676;28;20178;-80
2021/07/05 06:56:50;;;;;;;8.27;7.57;;;16.20;99.90;;;;;;5104092;28;20220;-80
2021/07/05 06:59:15;;;;;;;6.90;6.40;;;16.30;99.90;;;;;;5103439;28;20178;-79
2021/07/05 07:01:41;;;;;;;8.00;7.17;;;16.30;99.90;;;;;;5103124;28;20648;-80
2021/07/05 07:04:07;;;;;;;7.53;6.83;;;16.40;99.90;;;;;;5103760;28;20179;-79
2021/07/05 07:06:33;;;;;;;8.93;7.17;;;16.40;99.90;;;;;;5103248;28;20200;-79
2021/07/05 07:08:59;;;;;;;7.00;6.50;;;16.40;99.90;;;;;;5104046;28;20183;-80
2021/07/05 07:11:25;;;;;;;7.33;6.63;;;16.40;99.90;;;;;;5103286;28;20252;-80
2021/07/05 07:13:51;;;;;;;7.73;7.03;;;16.40;99.90;;;;;;5102886;28;20192;-79
2021/07/05 07:16:18;;;;;;;9.23;7.43;;;16.40;99.90;;;;;;5102680;28;20185;-79
2021/07/05 07:21:28;;;;;;;7.40;6.70;;;16.50;99.90;;;;;;5122146;28;20209;-80
2021/07/05 07:23:54;;;;;;;7.87;6.80;;;16.50;99.90;;;;;;5102795;28;20168;-80
2021/07/05 07:26:21;;;;;;;8.07;7.13;;;16.50;99.90;;;;;;5103017;28;20271;-80
2021/07/05 07:28:55;;;;;;;8.13;6.53;;;16.50;99.90;;;;;;5102544;28;20168;-80
2021/07/05 07:31:22;;;;;;;8.13;7.53;;;16.50;99.90;;;;;;5103669;28;20184;-80
2021/07/05 07:33:48;;;;;;;8.17;7.37;;;16.50;99.90;;;;;;5102734;28;20196;-80
2021/07/05 07:36:14;;;;;;;12.70;11.37;;;16.60;99.90;;;;;;5101918;28;20263;-79
2021/07/05 07:38:44;;;;;;;8.07;7.37;;;16.50;99.90;;;;;;5102701;28;20638;-79
2021/07/05 07:41:10;;;;;;;7.13;6.43;;;16.60;99.90;;;;;;5102488;28;20266;-80
2021/07/05 07:43:36;;;;;;;7.23;6.53;;;16.60;99.90;;;;;;5102113;28;20609;-79
2021/07/05 07:46:02;;;;;;;9.87;6.00;;;16.60;99.90;;;;;;5102921;28;20200;-80
2021/07/05 07:48:28;;;;;;;7.47;6.87;;;16.60;99.90;;;;;;5102596;28;20238;-80
2021/07/05 07:50:53;;;;;;;7.07;6.33;;;16.70;99.90;;;;;;5121100;28;20645;-80
2021/07/05 07:53:19;;;;;;;8.43;6.77;;;16.80;99.90;;;;;;5102245;28;20569;-80
2021/07/05 07:55:44;;;;;;;6.80;6.20;;;16.80;99.90;;;;;;5101616;28;20188;-79
2021/07/05 07:58:10;;;;;;;7.90;6.60;;;16.80;99.90;;;;;;5101569;28;20167;-80
2021/07/05 08:00:36;;;;;;;8.33;7.43;;;16.90;99.90;;;;;;5101616;28;20538;-80
2021/07/05 08:03:01;;;;;;;9.23;7.47;;;16.90;99.90;;;;;;5100493;28;20562;-80
2021/07/05 08:05:28;;;;;;;14.70;8.50;;;16.90;99.90;;;;;;5100927;28;20180;-80
2021/07/05 08:07:53;;;;;;;8.77;7.63;;;17.00;99.90;;;;;;5119098;28;20259;-80
2021/07/05 08:10:19;;;;;;;10.83;7.57;;;17.00;99.90;;;;;;5100819;28;20312;-80
2021/07/05 08:12:46;;;;;;;9.23;7.13;;;17.00;99.90;;;;;;5101819;28;20699;-80
2021/07/05 08:15:13;;;;;;;7.73;6.97;;;17.20;99.90;;;;;;5119149;28;20190;-79
2021/07/05 08:17:42;;;;;;;7.37;6.63;;;17.20;99.90;;;;;;5101333;28;20168;-78
2021/07/05 08:20:09;;;;;;;7.23;6.53;;;17.20;99.90;;;;;;5100556;28;20227;-79
2021/07/05 08:22:35;;;;;;;4.50;4.10;;;17.30;99.90;;;;;;5100758;28;20192;-78
2021/07/05 08:25:05;;;;;;;6.17;2.47;;;17.50;99.90;;;;;;5100157;28;20224;-79
2021/07/05 08:27:33;;;;;;;3.10;2.03;;;17.50;99.90;;;;;;5099696;28;20579;-78
2021/07/05 08:29:59;;;;;;;3.20;1.73;;;17.40;99.90;;;;;;5117779;28;20220;-78
2021/07/05 08:32:25;;;;;;;2.60;2.33;;;17.50;99.90;;;;;;5099424;28;20673;-80
2021/07/05 08:34:51;;;;;;;3.63;2.30;;;17.60;99.90;;;;;;5099327;28;20180;-79
2021/07/05 08:37:16;;;;;;;4.17;2.23;;;17.70;99.90;;;;;;5099685;28;20231;-81
2021/07/05 08:39:42;;;;;;;3.83;2.20;;;17.80;99.90;;;;;;5099414;28;20181;-80
2021/07/05 08:42:08;;;;;;;2.33;1.70;;;17.80;99.90;;;;;;5099576;28;20248;-79
2021/07/05 08:44:34;;;;;;;2.00;1.80;;;17.80;99.90;;;;;;5099348;28;20260;-79
2021/07/05 08:47:02;;;;;;;2.40;2.20;;;17.90;99.90;;;;;;5099278;28;20251;-80
2021/07/05 08:49:27;;;;;;;2.30;1.90;;;17.90;99.90;;;;;;5099594;28;20205;-80
2021/07/05 08:51:56;;;;;;;1.97;1.70;;;17.90;99.90;;;;;;5099688;28;20676;-80
2021/07/05 08:54:22;;;;;;;2.50;1.83;;;18.00;99.90;;;;;;5099020;28;20202;-80
2021/07/05 08:56:48;;;;;;;3.10;1.97;;;18.00;99.90;;;;;;5099490;28;20611;-79
2021/07/05 08:59:17;;;;;;;3.77;1.57;;;18.10;99.90;;;;;;5099742;28;20634;-80
2021/07/05 09:01:44;;;;;;;2.47;1.80;;;18.10;99.90;;;;;;5100766;28;20220;-80
2021/07/05 09:04:14;;;;;;;2.57;2.27;;;18.10;99.90;;;;;;5100776;28;20174;-79
2021/07/05 09:07:06;;;;;;;1.93;1.70;;;18.20;99.90;;;;;;5100405;28;20542;-80
2021/07/05 09:09:35;;;;;;;2.00;1.80;;;18.30;99.90;;;;;;5100366;28;20178;-80
2021/07/05 09:12:08;;;;;;;2.47;1.83;;;18.40;99.90;;;;;;5118509;28;20205;-81
2021/07/05 09:14:35;;;;;;;2.33;1.30;;;18.40;99.90;;;;;;5100337;28;20181;-79
2021/07/05 09:17:09;;;;;;;2.77;2.20;;;18.40;99.90;;;;;;5099191;28;20187;-79
2021/07/05 09:19:37;;;;;;;1.53;1.43;;;18.40;99.90;;;;;;5099173;28;20171;-78
2021/07/05 09:22:09;;;;;;;1.77;1.67;;;18.30;99.90;;;;;;5117138;28;20203;-79
2021/07/05 09:24:42;;;;;;;2.40;2.00;;;18.40;99.90;;;;;;5098922;28;20658;-78
2021/07/05 09:27:33;;;;;;;3.57;1.50;;;18.40;99.90;;;;;;5098900;28;20593;-79
2021/07/05 09:30:10;;;;;;;1.83;1.47;;;18.30;99.90;;;;;;5079747;28;20175;-79
2021/07/05 09:32:36;;;;;;;1.70;1.60;;;18.40;99.90;;;;;;5096517;28;20190;-79
2021/07/05 09:35:13;;;;;;;3.37;1.50;;;18.40;99.90;;;;;;5117190;28;20187;-79
2021/07/05 09:37:54;;;;;;;3.83;2.20;;;18.40;99.90;;;;;;5098730;28;20253;-79
2021/07/05 09:40:20;;;;;;;5.07;1.90;;;18.50;99.90;;;;;;5098979;28;20641;-79
2021/07/05 09:42:50;;;;;;;4.37;2.53;;;18.50;99.90;;;;;;5098957;28;20215;-79
2021/07/05 09:45:36;;;;;;;1.93;1.70;;;18.50;99.90;;;;;;5099479;28;20552;-79
2021/07/05 09:48:16;;;;;;;2.27;1.03;;;18.60;99.90;;;;;;5098870;28;20667;-79
2021/07/05 09:50:43;;;;;;;1.83;1.40;;;18.70;99.90;;;;;;5098570;28;20179;-80
2021/07/05 09:53:48;;;;;;;3.33;1.93;;;18.70;99.90;;;;;;5098010;28;20209;-79
2021/07/05 09:56:18;;;;;;;1.70;1.20;;;18.80;99.90;;;;;;4985960;28;20217;-79
2021/07/05 09:58:44;;;;;;;3.03;1.43;;;18.80;99.90;;;;;;4994304;28;20262;-78
2021/07/05 10:01:10;;;;;;;1.10;0.90;;;18.70;99.90;;;;;;5028254;28;20271;-79
2021/07/05 10:03:39;;;;;;;1.07;0.90;;;18.80;99.90;;;;;;5094683;28;20660;-78
2021/07/05 10:06:38;;;;;;;1.87;0.83;;;18.90;99.90;;;;;;5097337;28;20170;-79
2021/07/05 10:09:04;;;;;;;1.17;0.87;;;18.90;99.90;;;;;;5079078;28;20240;-78
2021/07/05 10:11:29;;;;;;;1.43;0.80;;;18.90;99.90;;;;;;5098200;28;20634;-79
2021/07/05 10:14:20;;;;;;;4.33;1.00;;;18.80;99.90;;;;;;5098496;28;20175;-79
2021/07/05 10:16:47;;;;;;;1.57;0.90;;;18.90;99.90;;;;;;5097946;28;20282;-79
2021/07/05 10:19:14;;;;;;;0.97;0.80;;;18.90;99.90;;;;;;5097501;28;20210;-79
2021/07/05 10:21:40;;;;;;;3.43;0.90;;;18.90;99.90;;;;;;5097519;28;20167;-79
2021/07/05 10:24:06;;;;;;;1.03;0.63;;;18.90;99.90;;;;;;5098029;28;20167;-79
2021/07/05 10:26:37;;;;;;;1.30;1.07;;;18.90;99.90;;;;;;5097588;28;20174;-79
2021/07/05 10:29:05;;;;;;;2.77;1.10;;;18.90;99.90;;;;;;5097379;28;20646;-79
2021/07/05 10:31:35;;;;;;;3.70;1.03;;;19.00;99.90;;;;;;5097511;28;20167;-79
2021/07/05 10:34:02;;;;;;;3.50;0.90;;;19.00;99.90;;;;;;5097185;28;20235;-79
2021/07/05 10:36:33;;;;;;;2.33;1.03;;;19.10;99.90;;;;;;5097662;28;20211;-79
2021/07/05 10:39:01;;;;;;;1.37;0.80;;;19.20;99.90;;;;;;5097378;28;20175;-80
2021/07/05 10:41:39;;;;;;;0.80;0.80;;;19.30;99.90;;;;;;5097295;28;20164;-80
2021/07/05 10:44:06;;;;;;;1.53;0.77;;;19.30;99.90;;;;;;5096100;28;20522;-79
2021/07/05 10:46:48;;;;;;;1.27;1.00;;;19.50;99.90;;;;;;5116304;28;20237;-79
2021/07/05 10:49:29;;;;;;;1.33;0.80;;;19.50;99.90;;;;;;5077716;28;20171;-79
2021/07/05 10:52:01;;;;;;;1.67;0.70;;;19.60;99.90;;;;;;5077170;28;20203;-79
2021/07/05 10:54:48;;;;;;;1.20;1.03;;;19.80;99.90;;;;;;5095495;28;20168;-79
2021/07/05 10:57:16;;;;;;;1.40;1.00;;;19.90;99.90;;;;;;5102205;28;20695;-79
2021/07/05 10:59:47;;;;;;;3.33;0.93;;;20.00;99.90;;;;;;5106633;28;20159;-79
2021/07/05 11:02:34;;;;;;;1.33;1.07;;;20.00;99.90;;;;;;5112735;28;20206;-79
2021/07/05 11:05:00;;;;;;;3.07;0.90;;;20.10;99.90;;;;;;5089764;28;20188;-78
2021/07/05 11:07:47;;;;;;;2.80;1.03;;;20.20;99.90;;;;;;5110739;28;20615;-78
2021/07/05 11:10:29;;;;;;;1.13;0.93;;;20.30;99.90;;;;;;5107006;28;20161;-79
2021/07/05 11:12:56;;;;;;;1.10;1.00;;;20.30;99.90;;;;;;5108186;28;20188;-79
2021/07/05 11:15:57;;;;;;;1.50;0.90;;;20.30;99.90;;;;;;5112350;28;20577;-79
2021/07/05 11:18:37;;;;;;;2.17;0.90;;;20.20;99.90;;;;;;5111238;28;20188;-79
2021/07/05 11:21:08;;;;;;;1.90;0.90;;;20.10;99.90;;;;;;5108681;28;20611;-79
2021/07/05 11:24:04;;;;;;;4.33;1.13;;;20.20;99.90;;;;;;5114207;28;20549;-79
2021/07/05 11:26:38;;;;;;;2.83;1.13;;;20.30;99.90;;;;;;5110236;28;20169;-79
2021/07/05 11:29:16;;;;;;;1.33;1.10;;;20.30;99.90;;;;;;5095850;28;20171;-79
2021/07/05 11:31:52;;;;;;;1.83;0.93;;;20.40;99.90;;;;;;5112487;28;20224;-79
2021/07/05 11:34:38;;;;;;;2.40;0.93;;;20.40;99.90;;;;;;5117311;28;20263;-78
2021/07/05 11:37:13;;;;;;;2.10;0.90;;;20.40;99.90;;;;;;5115155;28;20194;-78
2021/07/05 11:39:50;;;;;;;2.60;1.20;;;20.40;99.90;;;;;;5118094;28;20177;-79
2021/07/05 11:42:32;;;;;;;5.43;1.20;;;20.30;99.90;;;;;;5115407;28;20207;-79
2021/07/05 11:44:58;;;;;;;1.30;1.10;;;20.20;99.90;;;;;;5117049;28;20172;-77
2021/07/05 11:47:50;;;;;;;2.17;1.00;;;20.10;99.90;;;;;;5112292;28;20179;-78
2021/07/05 11:50:21;;;;;;;1.10;1.00;;;20.10;99.90;;;;;;5092215;28;20545;-78
2021/07/05 11:52:46;;;;;;;1.30;1.20;;;20.20;99.90;;;;;;5108303;28;20201;-78
2021/07/05 11:55:12;;;;;;;3.70;1.20;;;20.20;99.90;;;;;;5115711;28;20197;-79
2021/07/05 11:57:48;;;;;;;1.63;1.20;;;20.10;99.90;;;;;;5111370;28;20517;-79
2021/07/05 12:00:16;;;;;;;1.43;1.03;;;20.00;99.90;;;;;;5095618;28;20756;-79
2021/07/05 12:02:42;;;;;;;3.50;1.20;;;20.10;99.90;;;;;;5093102;28;20203;-79
2021/07/05 12:05:12;;;;;;;3.77;1.17;;;20.00;99.90;;;;;;5112310;28;20528;-79
2021/07/05 12:07:37;;;;;;;2.60;1.53;;;20.00;99.90;;;;;;5115737;28;20174;-78
2021/07/05 12:10:09;;;;;;;3.90;1.13;;;19.90;99.90;;;;;;5108628;28;20176;-79
2021/07/05 12:12:35;;;;;;;1.80;1.07;;;19.80;99.90;;;;;;5097264;28;20192;-79
2021/07/05 12:15:03;;;;;;;1.10;1.00;;;19.90;99.90;;;;;;5114135;28;20177;-78
2021/07/05 12:17:30;;;;;;;1.43;1.20;;;20.00;99.90;;;;;;5097062;28;20527;-78
2021/07/05 12:19:56;;;;;;;0.90;0.80;;;20.00;99.90;;;;;;5111326;28;20675;-78
2021/07/05 12:22:25;;;;;;;1.47;0.80;;;20.00;99.90;;;;;;5100450;28;20179;-79
2021/07/05 12:24:59;;;;;;;1.53;0.83;;;20.00;99.90;;;;;;5112116;28;20496;-78
2021/07/05 12:27:30;;;;;;;1.27;0.90;;;20.00;99.90;;;;;;5087747;28;20167;-78
2021/07/05 12:30:00;;;;;;;1.73;1.10;;;20.00;99.90;;;;;;5113345;28;20606;-78
2021/07/05 12:32:32;;;;;;;0.70;0.70;;;20.10;99.90;;;;;;5087906;28;20194;-79
2021/07/05 12:35:02;;;;;;;2.57;0.80;;;20.10;99.90;;;;;;5090699;28;20224;-77
2021/07/05 12:37:33;;;;;;;1.43;0.90;;;20.00;99.90;;;;;;5092232;28;20269;-77
2021/07/05 12:40:10;;;;;;;0.80;0.60;;;20.00;99.90;;;;;;5084668;28;20222;-77
2021/07/05 12:42:41;;;;;;;0.80;0.80;;;19.90;99.90;;;;;;5115671;28;20230;-79
2021/07/05 12:45:13;;;;;;;0.80;0.70;;;19.80;99.90;;;;;;5117317;28;20160;-78
2021/07/05 12:47:54;;;;;;;1.03;0.80;;;19.80;99.90;;;;;;5095728;28;20633;-78
2021/07/05 12:50:29;;;;;;;2.10;1.00;;;19.70;99.90;;;;;;5098516;28;20527;-77
2021/07/05 12:53:03;;;;;;;1.23;0.90;;;19.80;99.90;;;;;;5098870;28;20194;-79
2021/07/05 12:55:29;;;;;;;1.17;0.93;;;19.80;99.90;;;;;;5110294;28;20677;-77